Garden Grove, IA (50103)

6:38 PM CDT on August 31, 2015 (GMT -0500)
Lamoni Municipal | | Change Station
CLOSE
Current Station
Airport
Location: Lamoni,
Elevation: 1132 ft
Nearby Weather Stations

Elev 1132 ft 40.63 °N, 93.90 °W | Updated 45 minutes ago

Partly Cloudy
Partly Cloudy
85 °F
Feels Like 89 °F
N
10
Wind Variable Wind from South

Today
High -- | Low -- °F
--% Chance of Precip.
Yesterday
High -- | Low -- °F
Precip. -- in
6:40 AM 7:48 PM
Waning Gibbous, 93% visible
Pressure 29.92 in
Visibility 10.0 miles
Clouds Clear
Heat Index 89 °F
Dew Point 70 °F
Humidity 61%
Rainfall 0.00 in
Snow Depth Not available.
UV 2 out of 12
Pollen 11.40 out of 12
Air Quality Not available.
Flu Activity Not available.
METAR KLWD 312253Z AUTO 18009KT 10SM CLR 29/21 A2995 RMK AO2 SLP132 T02940211
Pressure 29.92 in
Visibility 10.0 miles
Clouds Clear
Heat Index 89 °F
Dew Point 70 °F
Humidity 61%
Rainfall 0.00 in
Snow Depth Not available.
UV 2 out of 12
Pollen 11.40 out of 12
Air Quality Not available.
Flu Activity Not available.
METAR KLWD 312253Z AUTO 18009KT 10SM CLR 29/21 A2995 RMK AO2 SLP132 T02940211

10-Day Weather Forecast

×

Almanac

Astronomy

Aug. 31, 2015 Rise Set
Actual Time
Civil Twilight
Nautical Twilight
Astronomical Twilight
Moon
Length of Visible Light
Length of Day
Tomorrow will be .
, % of the Moon is Illuminated

Today's Extremes

State Highs State Lows

Community

WunderPhotos

Upload Photos

1,851,394 photos uploaded!

WunderBlogs® & News

Nearby

Air Quality

  Air Quality AQ Index Pollutant
Not available.

Snow Depth

Station Depth Elevation

Earthquake Activity

City Distance Mag. Time & Date
Minimum magnitude displayed is 2.5.

Coastal Water Temperatures

Place Temperature

Stations

Nearby Weather Stations

Station Location Temp. Windchill Dew Point Humidity Wind Precip. Elev Updated Type